Time;durP1;ratioP1;P1;durP2;ratioP2;P2;SDS_P1;SDS_P2;PMS_P1;PMS_P2;Temp;Humidity;BMP_temperature;BMP_pressure;BME280_temperature;BME280_humidity;BME280_pressure;Samples;Min_cycle;Max_cycle;Signal;HPM_P1;HPM_P2
2022/03/20 00:00:13;;;;;;;7.00;3.58;;;10.30;41.50;;;;;;5009853;28;20042;-88
2022/03/20 00:02:41;;;;;;;7.50;3.58;;;10.30;41.60;;;;;;5012881;28;20533;-88
2022/03/20 00:05:08;;;;;;;5.93;3.80;;;10.20;41.50;;;;;;5009622;28;20033;-87
2022/03/20 00:07:35;;;;;;;8.07;4.05;;;10.20;41.60;;;;;;5032497;28;20030;-89
2022/03/20 00:10:05;;;;;;;6.95;3.72;;;10.10;41.50;;;;;;5010602;28;20029;-88
2022/03/20 00:12:32;;;;;;;9.10;3.95;;;10.10;41.50;;;;;;5016237;28;20083;-88
2022/03/20 00:14:58;;;;;;;6.88;4.28;;;10.00;41.40;;;;;;5023023;28;20396;-89
2022/03/20 00:17:25;;;;;;;7.82;3.53;;;10.00;41.50;;;;;;5039477;28;20060;-87
2022/03/20 00:19:51;;;;;;;6.97;3.50;;;10.00;41.60;;;;;;5020400;28;20508;-88
2022/03/20 00:22:17;;;;;;;6.53;3.22;;;9.90;41.50;;;;;;5021092;28;20026;-84
2022/03/20 00:24:44;;;;;;;5.47;3.75;;;9.80;41.40;;;;;;5011998;28;20032;-86
2022/03/20 00:27:12;;;;;;;7.60;4.47;;;9.90;41.70;;;;;;5015259;28;20206;-85
2022/03/20 00:29:39;;;;;;;10.55;3.30;;;9.80;41.60;;;;;;5031078;28;20072;-86
2022/03/20 00:32:07;;;;;;;7.70;3.35;;;9.80;41.60;;;;;;5005508;28;20034;-85
2022/03/20 00:34:33;;;;;;;7.78;3.35;;;9.70;41.50;;;;;;5021125;28;20037;-84
2022/03/20 00:36:59;;;;;;;7.47;3.70;;;9.70;41.60;;;;;;5025719;28;20067;-85
2022/03/20 00:39:25;;;;;;;5.85;3.22;;;9.60;41.50;;;;;;5024328;28;20477;-84
2022/03/20 00:41:51;;;;;;;9.23;3.17;;;9.60;41.50;;;;;;5024678;28;20040;-84
2022/03/20 00:44:17;;;;;;;7.55;2.95;;;9.60;41.60;;;;;;5022816;28;20022;-83
2022/03/20 00:46:43;;;;;;;5.97;3.08;;;9.60;41.70;;;;;;5038592;28;20060;-84
2022/03/20 00:49:09;;;;;;;8.07;3.38;;;9.50;41.50;;;;;;5018958;28;20018;-85
2022/03/20 00:51:35;;;;;;;6.60;3.60;;;9.50;41.60;;;;;;4991557;28;20103;-84
2022/03/20 00:54:01;;;;;;;9.00;3.50;;;9.40;41.50;;;;;;5020666;28;20047;-84
2022/03/20 00:56:27;;;;;;;5.82;3.47;;;9.40;41.60;;;;;;5013134;28;20128;-84
2022/03/20 00:58:53;;;;;;;6.50;3.35;;;9.40;41.60;;;;;;5008398;28;20728;-83
2022/03/20 01:01:19;;;;;;;5.65;3.13;;;9.40;41.70;;;;;;5009956;28;20065;-82
2022/03/20 01:03:45;;;;;;;6.30;3.47;;;9.30;41.60;;;;;;5029629;28;20030;-83
2022/03/20 01:06:12;;;;;;;8.93;3.10;;;9.30;41.70;;;;;;5023732;28;20034;-83
2022/03/20 01:08:38;;;;;;;6.13;3.05;;;9.20;41.60;;;;;;5023748;28;20586;-84
2022/03/20 01:11:06;;;;;;;7.72;3.47;;;9.20;41.70;;;;;;5040529;28;20311;-83
2022/03/20 01:13:33;;;;;;;6.57;2.80;;;9.20;41.70;;;;;;5023351;28;20041;-83
2022/03/20 01:15:59;;;;;;;9.15;4.43;;;9.10;41.60;;;;;;5013444;28;20034;-84
2022/03/20 01:18:26;;;;;;;8.98;2.80;;;9.10;41.70;;;;;;5032492;28;20033;-84
2022/03/20 01:20:53;;;;;;;7.75;4.05;;;9.10;41.80;;;;;;5013690;28;20745;-82
2022/03/20 01:23:22;;;;;;;7.25;2.92;;;9.10;41.90;;;;;;5010036;28;20034;-82
2022/03/20 01:25:50;;;;;;;8.40;3.33;;;9.00;41.70;;;;;;5018603;28;20068;-82
2022/03/20 01:28:17;;;;;;;7.47;2.72;;;9.00;41.80;;;;;;5010872;28;20029;-82
2022/03/20 01:30:44;;;;;;;7.18;3.17;;;8.90;41.70;;;;;;5024510;28;20095;-82
2022/03/20 01:33:10;;;;;;;7.85;3.35;;;8.90;41.70;;;;;;5024607;28;20025;-82
2022/03/20 01:35:36;;;;;;;7.10;2.70;;;8.90;41.80;;;;;;5036130;28;20090;-82
2022/03/20 01:38:03;;;;;;;6.97;3.15;;;8.90;41.80;;;;;;5024705;28;20033;-82
2022/03/20 01:40:29;;;;;;;6.18;2.88;;;8.90;41.80;;;;;;5024740;28;20168;-82
2022/03/20 01:42:55;;;;;;;7.30;3.20;;;8.90;41.90;;;;;;5023503;28;20448;-83
2022/03/20 01:45:23;;;;;;;8.25;4.00;;;8.90;42.00;;;;;;5039130;28;20052;-83
2022/03/20 01:47:50;;;;;;;8.15;3.42;;;8.90;42.00;;;;;;5013658;28;20111;-83
2022/03/20 01:50:25;;;;;;;7.32;2.70;;;8.90;42.10;;;;;;5016322;28;20096;-83
2022/03/20 01:52:52;;;;;;;8.88;3.28;;;8.80;41.90;;;;;;5024560;28;20381;-83
2022/03/20 01:55:21;;;;;;;7.78;2.78;;;8.80;42.00;;;;;;5008837;28;20026;-84
2022/03/20 01:57:47;;;;;;;6.82;2.83;;;8.80;42.00;;;;;;5038743;28;20540;-85
2022/03/20 02:00:16;;;;;;;7.72;3.28;;;8.80;42.10;;;;;;5008384;28;20073;-85
2022/03/20 02:02:42;;;;;;;9.00;3.05;;;8.70;42.00;;;;;;5004967;28;20112;-84
2022/03/20 02:05:10;;;;;;;4.43;2.75;;;8.70;42.00;;;;;;5033906;28;20428;-84
2022/03/20 02:07:37;;;;;;;4.05;3.05;;;8.70;42.10;;;;;;5011016;28;20475;-84
2022/03/20 02:10:05;;;;;;;5.72;2.92;;;8.70;42.10;;;;;;5008762;28;20096;-85
2022/03/20 02:12:31;;;;;;;8.55;2.92;;;8.70;42.20;;;;;;5012622;28;20040;-85
2022/03/20 02:15:01;;;;;;;6.55;3.05;;;8.70;42.20;;;;;;5006950;28;20022;-84
2022/03/20 02:17:30;;;;;;;9.63;3.65;;;8.70;42.30;;;;;;5007930;28;20121;-84
2022/03/20 02:19:58;;;;;;;5.90;3.20;;;8.60;42.20;;;;;;5021627;28;20073;-83
2022/03/20 02:22:24;;;;;;;6.15;2.55;;;8.60;42.80;;;;;;5014678;28;20025;-82
2022/03/20 02:24:51;;;;;;;7.32;2.72;;;8.60;42.30;;;;;;5026424;28;20425;-84
2022/03/20 02:27:22;;;;;;;6.35;3.03;;;8.60;42.30;;;;;;5016127;28;20052;-82
2022/03/20 02:30:00;;;;;;;5.88;3.08;;;8.60;42.40;;;;;;5018857;28;20037;-82
2022/03/20 02:32:30;;;;;;;6.75;2.35;;;8.50;42.20;;;;;;5009192;28;20022;-82
2022/03/20 02:35:01;;;;;;;6.32;2.92;;;8.60;42.40;;;;;;5014974;28;20560;-83
2022/03/20 02:37:28;;;;;;;7.13;3.13;;;8.50;42.20;;;;;;5032647;28;20041;-84
2022/03/20 02:39:59;;;;;;;12.02;3.67;;;8.60;42.50;;;;;;5025437;28;20059;-83
2022/03/20 02:42:26;;;;;;;6.13;2.92;;;8.50;42.40;;;;;;5041666;28;20060;-83
2022/03/20 02:45:00;;;;;;;5.70;2.92;;;8.50;42.40;;;;;;5016530;28;20276;-84
2022/03/20 02:47:35;;;;;;;7.00;2.90;;;8.50;42.40;;;;;;5026078;28;20051;-84
2022/03/20 02:50:08;;;;;;;6.20;2.30;;;8.50;42.50;;;;;;5041361;28;20067;-88
2022/03/20 02:53:13;;;;;;;7.00;3.35;;;8.50;42.60;;;;;;5029495;28;20354;-86
2022/03/20 02:55:42;;;;;;;4.72;2.70;;;8.40;42.40;;;;;;5004169;28;20038;-87
2022/03/20 02:58:10;;;;;;;7.18;3.00;;;8.40;42.50;;;;;;4997988;28;20099;-85
2022/03/20 03:00:39;;;;;;;5.78;2.92;;;8.40;42.50;;;;;;5019792;28;20068;-84
2022/03/20 03:03:08;;;;;;;6.13;2.45;;;8.40;42.60;;;;;;5020568;28;20035;-83
2022/03/20 03:05:34;;;;;;;7.22;3.05;;;8.40;42.60;;;;;;5029288;28;20489;-84
2022/03/20 03:10:59;;;;;;;6.45;2.80;;;8.30;42.60;;;;;;5045093;28;20061;-84
2022/03/20 03:13:29;;;;;;;6.13;2.50;;;8.30;42.60;;;;;;5029538;28;20112;-85
2022/03/20 03:15:58;;;;;;;10.65;3.63;;;8.30;42.60;;;;;;5044497;28;20083;-85
2022/03/20 03:18:24;;;;;;;8.95;2.75;;;8.30;42.70;;;;;;5040593;28;20025;-85
2022/03/20 03:20:51;;;;;;;8.77;2.83;;;8.20;42.50;;;;;;5028396;28;20048;-84
2022/03/20 03:23:18;;;;;;;6.93;2.90;;;8.20;42.60;;;;;;5028492;28;20063;-85
2022/03/20 03:25:45;;;;;;;7.88;2.90;;;8.20;42.70;;;;;;5027257;28;20026;-87
2022/03/20 03:28:12;;;;;;;7.47;2.70;;;8.20;42.70;;;;;;5026328;28;20269;-86
2022/03/20 03:30:45;;;;;;;10.77;3.28;;;8.20;42.70;;;;;;5027516;28;20029;-83
2022/03/20 03:33:13;;;;;;;9.55;2.80;;;8.20;42.80;;;;;;5034303;28;20061;-83
2022/03/20 03:35:42;;;;;;;6.60;2.50;;;8.10;42.60;;;;;;5021003;28;20029;-83
2022/03/20 03:38:10;;;;;;;5.88;2.40;;;8.20;42.90;;;;;;5028397;28;20029;-82
2022/03/20 03:40:37;;;;;;;6.57;3.30;;;8.10;42.70;;;;;;5026822;28;20049;-83
2022/03/20 03:43:04;;;;;;;5.05;2.63;;;8.10;42.80;;;;;;5023557;28;20025;-83
2022/03/20 03:45:30;;;;;;;7.05;2.90;;;8.10;42.80;;;;;;5022617;28;20033;-83
2022/03/20 03:47:56;;;;;;;6.45;3.05;;;8.10;42.90;;;;;;5027787;28;20111;-86
2022/03/20 03:50:22;;;;;;;7.45;2.40;;;8.00;42.70;;;;;;5022547;28;20030;-89
2022/03/20 03:52:48;;;;;;;5.18;2.30;;;8.00;42.80;;;;;;5027440;28;20056;-89
2022/03/20 03:55:15;;;;;;;7.20;2.38;;;8.00;42.80;;;;;;5029905;28;20472;-83
2022/03/20 03:57:49;;;;;;;6.93;2.40;;;8.00;42.90;;;;;;5020132;28;20034;-83
2022/03/20 04:00:17;;;;;;;6.93;2.28;;;8.00;42.90;;;;;;5027566;28;20037;-84
2022/03/20 04:02:47;;;;;;;11.45;3.00;;;8.00;42.90;;;;;;5027239;28;20065;-85
2022/03/20 04:05:17;;;;;;;4.35;2.72;;;8.00;42.90;;;;;;5041830;28;20120;-84
2022/03/20 04:07:45;;;;;;;7.80;2.70;;;8.00;43.00;;;;;;5027731;28;20041;-84
2022/03/20 04:10:11;;;;;;;5.97;3.22;;;8.00;42.90;;;;;;5036481;28;20030;-84
2022/03/20 04:12:40;;;;;;;5.25;2.50;;;8.00;43.00;;;;;;5018488;28;20641;-84
2022/03/20 04:15:07;;;;;;;8.02;2.60;;;8.00;43.00;;;;;;5009862;28;20044;-86
2022/03/20 04:17:34;;;;;;;6.18;2.47;;;8.00;43.00;;;;;;5021497;28;20029;-86
2022/03/20 04:20:01;;;;;;;6.10;3.05;;;8.00;43.00;;;;;;5025214;28;20095;-86
2022/03/20 04:22:28;;;;;;;9.00;2.72;;;8.00;43.60;;;;;;5027984;28;20177;-85
2022/03/20 04:24:55;;;;;;;6.93;2.67;;;8.00;43.10;;;;;;5027807;28;20052;-85
2022/03/20 04:27:21;;;;;;;7.97;2.53;;;8.00;43.10;;;;;;5008350;28;20040;-86
2022/03/20 04:29:48;;;;;;;6.65;2.70;;;8.00;43.20;;;;;;5012284;28;20030;-86
2022/03/20 04:32:14;;;;;;;4.63;1.85;;;8.00;43.20;;;;;;5027417;28;20083;-85
2022/03/20 04:34:41;;;;;;;6.38;2.38;;;7.90;43.00;;;;;;5026741;28;20228;-85
2022/03/20 04:37:09;;;;;;;6.28;2.63;;;7.90;43.00;;;;;;5014195;28;20030;-86
2022/03/20 04:39:36;;;;;;;5.65;3.20;;;7.90;43.10;;;;;;5026074;28;20033;-86
2022/03/20 04:42:03;;;;;;;6.43;2.15;;;7.90;43.10;;;;;;5025839;28;20417;-86
2022/03/20 04:44:30;;;;;;;7.57;2.78;;;7.90;43.20;;;;;;5026887;28;20329;-84
2022/03/20 04:46:56;;;;;;;5.40;2.67;;;7.80;43.00;;;;;;5025175;28;20054;-82
2022/03/20 05:00:24;;;;;;;6.65;2.33;;;7.70;43.10;;;;;;5022673;28;20038;-85
2022/03/20 05:02:50;;;;;;;8.38;2.60;;;7.70;43.20;;;;;;5020338;28;20029;-84
2022/03/20 05:05:18;;;;;;;9.43;2.63;;;7.60;43.00;;;;;;5027425;28;20026;-83
2022/03/20 05:07:43;;;;;;;6.43;2.67;;;7.60;43.10;;;;;;5025834;28;20040;-84
2022/03/20 05:15:40;;;;;;;6.75;2.67;;;7.50;43.10;;;;;;5028693;28;20026;-85
2022/03/20 05:18:09;;;;;;;3.63;2.10;;;7.50;43.10;;;;;;5043690;28;20025;-85
2022/03/20 05:20:35;;;;;;;6.05;2.33;;;7.40;43.00;;;;;;5029564;28;20064;-86
2022/03/20 05:23:02;;;;;;;3.88;2.30;;;7.40;43.10;;;;;;5029504;28;20041;-85
2022/03/20 05:25:31;;;;;;;6.85;2.72;;;7.40;43.10;;;;;;5029015;28;20057;-84
2022/03/20 05:27:57;;;;;;;6.03;2.63;;;7.40;43.20;;;;;;5023504;28;20030;-86
2022/03/20 05:30:24;;;;;;;5.15;2.20;;;7.30;43.00;;;;;;5013256;28;20383;-87
2022/03/20 05:32:51;;;;;;;5.25;2.38;;;7.30;43.10;;;;;;5025914;28;20056;-87
2022/03/20 05:35:17;;;;;;;4.78;2.30;;;7.30;43.10;;;;;;5043178;28;20063;-87
2022/03/20 05:37:44;;;;;;;7.55;2.88;;;7.30;43.20;;;;;;5026464;28;20566;-84
2022/03/20 05:40:12;;;;;;;5.03;2.70;;;7.30;43.30;;;;;;5027215;28;20606;-83
2022/03/20 05:42:38;;;;;;;9.90;2.65;;;7.20;43.10;;;;;;5030310;28;20040;-85
2022/03/20 05:45:04;;;;;;;6.10;2.75;;;7.20;43.10;;;;;;5045591;28;20026;-84
2022/03/20 05:47:31;;;;;;;7.18;3.05;;;7.20;43.20;;;;;;5026897;28;20057;-85
2022/03/20 05:50:00;;;;;;;4.82;2.22;;;7.20;43.30;;;;;;5024238;28;21068;-85
2022/03/20 05:52:30;;;;;;;6.25;2.95;;;7.20;43.30;;;;;;5013427;28;20029;-85
2022/03/20 05:54:57;;;;;;;4.30;2.28;;;7.10;43.20;;;;;;5039456;28;20044;-85
2022/03/20 06:00:16;;;;;;;4.28;2.38;;;7.10;43.30;;;;;;5025152;28;20029;-85
2022/03/20 06:02:43;;;;;;;9.63;2.80;;;7.10;43.40;;;;;;5042344;28;20084;-83
2022/03/20 06:05:10;;;;;;;3.75;1.73;;;7.00;43.20;;;;;;5041090;28;20029;-83
2022/03/20 06:07:43;;;;;;;5.63;2.45;;;7.00;43.30;;;;;;5027824;28;20034;-85
2022/03/20 06:10:17;;;;;;;5.78;2.22;;;6.90;43.20;;;;;;5023867;28;20037;-84
2022/03/20 06:12:43;;;;;;;5.60;2.20;;;6.90;43.20;;;;;;5027266;28;20033;-87
2022/03/20 06:15:10;;;;;;;6.47;2.30;;;6.90;43.20;;;;;;5026744;28;20176;-86
2022/03/20 06:17:47;;;;;;;5.53;2.15;;;6.90;43.30;;;;;;5024578;28;20033;-86
2022/03/20 06:20:16;;;;;;;5.80;2.50;;;6.90;43.40;;;;;;5014851;28;20044;-85
2022/03/20 06:22:43;;;;;;;8.10;2.42;;;6.90;43.40;;;;;;5024787;28;20049;-89
2022/03/20 06:25:09;;;;;;;7.00;2.95;;;6.80;43.20;;;;;;5026822;28;20037;-89
2022/03/20 06:27:45;;;;;;;7.88;2.50;;;6.80;43.30;;;;;;5025987;28;20033;-91
2022/03/20 06:30:13;;;;;;;5.53;2.75;;;6.80;43.30;;;;;;5027577;28;20033;-89
2022/03/20 06:32:40;;;;;;;7.32;2.28;;;6.80;43.30;;;;;;5026866;28;20021;-87
2022/03/20 06:35:07;;;;;;;6.22;2.05;;;6.80;43.30;;;;;;5026741;28;20120;-88
2022/03/20 06:37:39;;;;;;;7.80;2.40;;;6.80;43.90;;;;;;5024294;28;20385;-88
2022/03/20 06:40:07;;;;;;;5.68;2.15;;;6.80;43.30;;;;;;5025043;28;20566;-86
2022/03/20 06:42:33;;;;;;;7.55;2.42;;;6.80;43.40;;;;;;5026957;28;20073;-87
2022/03/20 06:45:01;;;;;;;7.10;2.78;;;6.80;43.40;;;;;;5027770;28;20053;-85
2022/03/20 06:47:27;;;;;;;5.07;2.00;;;6.80;43.40;;;;;;5031775;28;20042;-83
2022/03/20 06:49:55;;;;;;;6.63;2.65;;;6.80;43.40;;;;;;5018310;28;20080;-92
2022/03/20 06:52:22;;;;;;;8.45;2.75;;;6.80;43.50;;;;;;5038164;28;20450;-84
2022/03/20 06:54:49;;;;;;;5.32;2.70;;;6.80;43.60;;;;;;5020589;28;20477;-83
2022/03/20 06:57:18;;;;;;;13.35;2.90;;;6.80;43.50;;;;;;5038140;28;20580;-85
2022/03/20 06:59:46;;;;;;;8.00;2.88;;;6.80;43.50;;;;;;5025877;28;20045;-84
2022/03/20 07:02:12;;;;;;;9.18;2.80;;;6.80;43.50;;;;;;5032765;28;20037;-85
2022/03/20 07:04:38;;;;;;;8.48;2.88;;;6.80;43.50;;;;;;5027496;28;20504;-88
2022/03/20 07:07:04;;;;;;;7.75;3.05;;;6.80;43.50;;;;;;5009269;28;20076;-86
2022/03/20 07:09:30;;;;;;;6.85;2.63;;;6.70;43.40;;;;;;5027803;28;20484;-86
2022/03/20 07:11:56;;;;;;;4.38;2.30;;;6.80;43.60;;;;;;5025379;28;20025;-85
2022/03/20 07:14:22;;;;;;;8.35;3.22;;;6.80;43.60;;;;;;5026451;28;20547;-84
2022/03/20 07:16:48;;;;;;;12.23;4.03;;;6.80;43.60;;;;;;5026229;28;20583;-90
2022/03/20 07:19:14;;;;;;;12.07;3.15;;;6.90;43.70;;;;;;5013578;28;20025;-92
2022/03/20 07:21:40;;;;;;;12.15;3.35;;;6.90;43.70;;;;;;5042211;28;20051;-94
2022/03/20 07:24:07;;;;;;;7.72;3.10;;;7.00;43.80;;;;;;5037054;28;20108;-91
2022/03/20 07:29:51;;;;;;;10.55;3.60;;;7.10;43.80;;;;;;5026514;28;20033;-85
2022/03/20 07:32:10;;;;;;;11.05;3.58;;;7.20;43.90;;;;;;5024216;28;20041;-85
2022/03/20 07:34:38;;;;;;;7.32;3.03;;;7.20;43.80;;;;;;5024882;28;20056;-88
2022/03/20 07:37:05;;;;;;;8.52;2.80;;;7.30;43.90;;;;;;5026070;28;20029;-87
2022/03/20 07:39:33;;;;;;;8.68;3.08;;;7.30;43.70;;;;;;5026469;28;20453;-88
2022/03/20 07:42:00;;;;;;;9.10;2.72;;;7.40;43.80;;;;;;5030466;28;20037;-87
2022/03/20 07:44:29;;;;;;;6.95;2.53;;;7.50;43.70;;;;;;5026243;28;20495;-85
2022/03/20 07:46:55;;;;;;;6.80;2.88;;;7.60;43.80;;;;;;5016434;28;20169;-84
2022/03/20 07:49:21;;;;;;;7.95;3.17;;;7.60;43.60;;;;;;5025486;28;20116;-92
2022/03/20 07:51:48;;;;;;;9.60;3.20;;;7.70;43.80;;;;;;5021695;28;20061;-85
2022/03/20 07:54:14;;;;;;;7.32;3.22;;;7.80;43.90;;;;;;5022920;28;20403;-88
2022/03/20 07:56:41;;;;;;;7.28;3.30;;;7.90;44.10;;;;;;5023963;28;20052;-90
2022/03/20 07:59:07;;;;;;;6.70;3.05;;;7.90;44.00;;;;;;5024603;28;20121;-88
2022/03/20 08:01:33;;;;;;;5.80;2.88;;;7.90;44.00;;;;;;5024273;28;20048;-87
2022/03/20 08:04:00;;;;;;;9.55;2.97;;;7.90;43.90;;;;;;5012653;28;20109;-87
2022/03/20 08:06:27;;;;;;;7.00;2.78;;;8.00;44.10;;;;;;5014519;28;20037;-88
2022/03/20 08:08:53;;;;;;;7.45;3.30;;;8.00;44.00;;;;;;5023059;28;20034;-88
2022/03/20 08:11:19;;;;;;;8.82;3.92;;;8.00;44.00;;;;;;5025127;28;20519;-87
2022/03/20 08:13:46;;;;;;;11.25;3.30;;;8.00;44.00;;;;;;5022414;28;20025;-88
2022/03/20 08:16:16;;;;;;;11.45;3.53;;;8.00;43.90;;;;;;5025504;28;20480;-88
2022/03/20 08:18:43;;;;;;;10.48;3.15;;;8.10;44.10;;;;;;5039407;28;20044;-88
2022/03/20 08:21:11;;;;;;;6.97;2.90;;;8.10;44.00;;;;;;5025817;28;20085;-90
2022/03/20 08:23:39;;;;;;;7.15;2.60;;;8.10;44.00;;;;;;5025120;28;20125;-88
2022/03/20 08:26:08;;;;;;;6.03;2.95;;;8.10;43.90;;;;;;5025310;28;20037;-91
2022/03/20 08:28:37;;;;;;;5.03;3.00;;;8.20;44.00;;;;;;5025277;28;20087;-91
2022/03/20 08:31:06;;;;;;;9.80;3.33;;;8.20;44.00;;;;;;5025620;28;20033;-90
2022/03/20 08:33:34;;;;;;;4.82;3.20;;;8.20;44.00;;;;;;5024151;28;20029;-90
2022/03/20 08:36:01;;;;;;;6.22;3.13;;;8.30;44.10;;;;;;5024905;28;20026;-90
2022/03/20 08:38:27;;;;;;;6.15;3.28;;;8.30;44.00;;;;;;5024611;28;20030;-93
2022/03/20 08:40:54;;;;;;;6.70;3.28;;;8.30;44.00;;;;;;5022801;28;20061;-92
2022/03/20 08:43:20;;;;;;;3.85;2.63;;;8.30;43.90;;;;;;5025840;28;20040;-93
2022/03/20 08:45:46;;;;;;;6.22;3.08;;;8.30;43.80;;;;;;5028214;28;20368;-94
2022/03/20 08:48:12;;;;;;;8.25;3.13;;;8.40;43.90;;;;;;5040156;28;20227;-94
2022/03/20 08:50:38;;;;;;;5.70;3.45;;;8.40;43.80;;;;;;5031979;28;20037;-94
2022/03/20 08:53:04;;;;;;;7.65;2.45;;;8.40;43.80;;;;;;5029669;28;20226;-94
2022/03/20 08:55:33;;;;;;;5.50;3.08;;;8.50;43.90;;;;;;5033829;28;20029;-94
2022/03/20 08:57:59;;;;;;;7.13;3.33;;;8.50;43.80;;;;;;5029702;28;20026;-93
2022/03/20 09:00:27;;;;;;;7.10;3.10;;;8.50;43.70;;;;;;5019541;28;20060;-95
2022/03/20 09:02:53;;;;;;;8.38;3.22;;;8.60;43.80;;;;;;5029104;28;20037;-95
2022/03/20 09:05:21;;;;;;;9.15;3.47;;;8.60;43.70;;;;;;5026196;28;20124;-91
2022/03/20 09:07:49;;;;;;;5.85;3.20;;;8.70;43.90;;;;;;5035257;28;20258;-82
2022/03/20 09:10:16;;;;;;;6.50;3.58;;;8.70;43.70;;;;;;5040396;28;20026;-86
2022/03/20 09:12:43;;;;;;;8.15;3.13;;;8.80;43.80;;;;;;5026380;28;20038;-85
2022/03/20 09:15:15;;;;;;;6.30;3.03;;;8.80;43.70;;;;;;5037844;28;20018;-86
2022/03/20 09:20:30;;;;;;;7.28;3.35;;;8.90;43.60;;;;;;5067889;28;20072;-88
2022/03/20 09:22:57;;;;;;;7.05;3.63;;;9.00;43.60;;;;;;5049302;28;20010;-90
2022/03/20 09:25:23;;;;;;;8.38;3.53;;;9.00;43.50;;;;;;5043214;28;20163;-87
2022/03/20 09:27:51;;;;;;;7.35;3.53;;;9.10;43.60;;;;;;5051076;28;20025;-89
2022/03/20 09:30:18;;;;;;;4.90;3.38;;;9.10;43.50;;;;;;5053887;28;20033;-89
2022/03/20 09:32:45;;;;;;;8.25;3.55;;;9.20;43.60;;;;;;5055261;28;20093;-85
2022/03/20 09:35:11;;;;;;;8.85;4.30;;;9.20;43.50;;;;;;5055853;28;20013;-88
2022/03/20 09:37:38;;;;;;;6.50;3.00;;;9.20;43.40;;;;;;5035317;28;20038;-89
2022/03/20 09:40:06;;;;;;;7.40;3.33;;;9.30;43.50;;;;;;5034076;28;20552;-89
2022/03/20 09:42:34;;;;;;;9.13;3.97;;;9.30;43.40;;;;;;5030708;28;20132;-91
2022/03/20 09:45:00;;;;;;;11.32;4.50;;;9.40;43.50;;;;;;5031073;28;20034;-91
2022/03/20 09:47:26;;;;;;;6.88;3.78;;;9.40;43.40;;;;;;5028940;28;20413;-86
2022/03/20 09:49:55;;;;;;;9.50;3.88;;;9.40;43.30;;;;;;5026588;28;20029;-89
2022/03/20 09:52:22;;;;;;;9.90;4.22;;;9.50;43.40;;;;;;5019166;28;20042;-89
2022/03/20 09:54:48;;;;;;;8.52;4.53;;;9.60;43.40;;;;;;5042409;28;20022;-95
2022/03/20 09:57:14;;;;;;;7.38;4.35;;;9.70;43.50;;;;;;5025206;28;20034;-92
2022/03/20 09:59:41;;;;;;;8.00;4.60;;;9.70;43.40;;;;;;5029769;28;20105;-88
2022/03/20 10:02:09;;;;;;;8.18;3.85;;;9.80;43.40;;;;;;4992607;28;20049;-84
2022/03/20 10:04:55;;;;;;;7.75;4.07;;;9.80;43.20;;;;;;5009625;28;20527;-85
2022/03/20 10:07:28;;;;;;;11.57;4.68;;;9.90;43.10;;;;;;5035940;28;20038;-88
2022/03/20 10:10:22;;;;;;;9.77;4.15;;;9.90;43.10;;;;;;5039491;28;20491;-87
2022/03/20 10:12:53;;;;;;;7.72;3.92;;;10.00;43.00;;;;;;5019095;28;20553;-86
2022/03/20 10:15:28;;;;;;;5.65;3.22;;;10.10;43.10;;;;;;5006735;28;20163;-87
2022/03/20 10:18:08;;;;;;;7.65;3.38;;;10.10;42.90;;;;;;5034244;28;20030;-86
2022/03/20 10:20:44;;;;;;;8.25;3.55;;;10.20;42.90;;;;;;5021317;28;20061;-87
2022/03/20 10:23:28;;;;;;;8.02;4.72;;;10.20;42.70;;;;;;5022969;28;20036;-90
2022/03/20 10:25:55;;;;;;;9.40;4.88;;;10.30;42.70;;;;;;5030813;28;20053;-85
2022/03/20 10:28:21;;;;;;;8.75;4.45;;;10.30;42.70;;;;;;5020522;28;20029;-83
2022/03/20 10:31:02;;;;;;;7.45;4.25;;;10.40;42.70;;;;;;5019291;28;20029;-83
2022/03/20 10:33:27;;;;;;;8.18;4.85;;;10.50;42.60;;;;;;5022827;28;20438;-83
2022/03/20 10:36:09;;;;;;;7.82;4.28;;;10.60;42.60;;;;;;5023382;28;20167;-81
2022/03/20 10:38:38;;;;;;;8.70;4.68;;;10.60;42.30;;;;;;5028806;28;20042;-83
2022/03/20 10:41:26;;;;;;;9.15;4.43;;;10.70;42.50;;;;;;5017896;28;20042;-81
2022/03/20 10:43:54;;;;;;;9.50;4.97;;;10.70;42.10;;;;;;5024075;28;20033;-82
2022/03/20 10:46:25;;;;;;;5.68;4.63;;;10.80;42.40;;;;;;5020693;28;20073;-77
2022/03/20 10:48:56;;;;;;;10.68;3.55;;;10.80;42.20;;;;;;5015156;28;20284;-77
2022/03/20 10:51:37;;;;;;;8.00;4.45;;;10.90;42.40;;;;;;5007334;28;20064;-77
2022/03/20 10:54:14;;;;;;;8.32;5.03;;;10.90;42.20;;;;;;5017443;28;20025;-76
2022/03/20 10:56:53;;;;;;;9.48;4.60;;;11.00;42.10;;;;;;5021107;28;20034;-76
2022/03/20 10:59:20;;;;;;;7.88;4.38;;;11.10;42.10;;;;;;5030321;28;20525;-76
2022/03/20 11:01:47;;;;;;;5.85;4.40;;;11.10;42.10;;;;;;5023195;28;20264;-78
2022/03/20 11:04:14;;;;;;;6.88;4.65;;;11.10;41.90;;;;;;5023854;28;20443;-88
2022/03/20 11:06:44;;;;;;;7.95;4.32;;;11.20;41.90;;;;;;5037378;28;20128;-85
2022/03/20 11:09:10;;;;;;;9.25;5.20;;;11.20;41.80;;;;;;5024168;28;20062;-91
2022/03/20 11:11:44;;;;;;;10.55;5.90;;;11.30;41.80;;;;;;5021608;28;20535;-88
2022/03/20 11:14:15;;;;;;;8.60;4.15;;;11.40;41.80;;;;;;5012005;28;20440;-87
2022/03/20 11:16:43;;;;;;;5.95;4.95;;;11.40;41.70;;;;;;5037855;28;20021;-88
2022/03/20 11:19:11;;;;;;;6.28;4.60;;;11.40;41.50;;;;;;5027271;28;20068;-87
2022/03/20 11:21:41;;;;;;;7.90;4.82;;;11.50;41.60;;;;;;5024091;28;20405;-87
2022/03/20 11:24:07;;;;;;;11.52;4.88;;;11.50;41.40;;;;;;5041872;28;20025;-89
2022/03/20 11:26:38;;;;;;;5.82;4.55;;;11.60;41.50;;;;;;5020924;28;20025;-87
2022/03/20 11:29:08;;;;;;;6.90;4.65;;;11.60;41.30;;;;;;5033557;28;20567;-85
2022/03/20 11:31:37;;;;;;;7.25;5.00;;;11.70;41.30;;;;;;5026246;28;20131;-87
2022/03/20 11:34:04;;;;;;;7.38;4.95;;;11.70;41.10;;;;;;5024152;28;20583;-96
2022/03/20 11:36:32;;;;;;;9.30;5.05;;;11.80;41.10;;;;;;5028340;28;20085;-87
2022/03/20 11:39:12;;;;;;;8.73;5.47;;;11.80;41.00;;;;;;5012012;28;20037;-84
2022/03/20 11:41:40;;;;;;;8.15;5.20;;;11.80;40.70;;;;;;5021174;28;20129;-84
2022/03/20 11:44:20;;;;;;;9.15;5.65;;;12.00;41.10;;;;;;5022834;28;20069;-83
2022/03/20 11:47:05;;;;;;;10.23;5.75;;;12.00;40.90;;;;;;5021460;28;20053;-85
2022/03/20 11:49:31;;;;;;;10.68;6.45;;;12.00;40.80;;;;;;5012680;28;20041;-87
2022/03/20 11:52:07;;;;;;;12.23;6.78;;;12.10;40.90;;;;;;5020613;28;20500;-92
2022/03/20 11:54:39;;;;;;;8.50;6.20;;;12.10;40.70;;;;;;5016321;28;20904;-89
2022/03/20 11:57:23;;;;;;;10.95;6.47;;;12.20;40.80;;;;;;5022108;28;20037;-93
2022/03/20 11:59:52;;;;;;;6.95;5.60;;;12.20;40.50;;;;;;5012106;28;20064;-90
2022/03/20 12:02:19;;;;;;;10.93;7.40;;;12.20;40.60;;;;;;5016991;28;20131;-91
2022/03/20 12:04:59;;;;;;;10.05;6.28;;;12.30;40.60;;;;;;5027577;28;20029;-92
2022/03/20 12:07:35;;;;;;;9.93;6.15;;;12.30;40.40;;;;;;5022641;28;20497;-94
2022/03/20 12:10:52;;;;;;;7.85;5.88;;;12.30;40.30;;;;;;5019607;28;20033;-91
2022/03/20 12:13:42;;;;;;;7.63;6.45;;;12.40;40.00;;;;;;5000599;28;20037;-95
2022/03/20 12:16:09;;;;;;;9.80;7.00;;;12.40;40.10;;;;;;5025814;28;20073;-93
2022/03/20 12:19:11;;;;;;;8.98;6.75;;;12.50;40.20;;;;;;5010224;28;20049;-96
2022/03/20 12:22:01;;;;;;;11.45;6.85;;;12.50;39.80;;;;;;5025618;28;20403;-92
2022/03/20 12:24:37;;;;;;;11.55;6.50;;;12.50;39.70;;;;;;5032340;28;20030;-88
2022/03/20 12:27:29;;;;;;;11.75;7.55;;;12.60;39.90;;;;;;5014628;28;20567;-91
2022/03/20 12:30:16;;;;;;;13.15;7.05;;;12.60;39.70;;;;;;5018075;28;20442;-94
2022/03/20 12:32:48;;;;;;;8.80;7.30;;;12.60;39.70;;;;;;5030285;28;20040;-91
2022/03/20 12:35:14;;;;;;;10.70;8.43;;;12.70;39.80;;;;;;5019241;28;20084;-94
2022/03/20 12:37:42;;;;;;;14.95;9.38;;;12.70;39.70;;;;;;5040039;28;20124;-95
2022/03/20 12:40:11;;;;;;;11.18;7.55;;;12.80;40.30;;;;;;5022350;28;20076;-94
2022/03/20 12:42:45;;;;;;;13.27;7.55;;;12.80;39.60;;;;;;5025694;28;20116;-96
2022/03/20 12:45:16;;;;;;;11.55;7.38;;;12.90;39.60;;;;;;5021409;28;20029;-83
2022/03/20 12:48:10;;;;;;;9.10;6.75;;;12.90;39.30;;;;;;5029805;28;20057;-83
2022/03/20 12:50:40;;;;;;;;;;;13.00;39.70;;;;;;5014723;28;20040;-88
2022/03/20 12:53:14;;;;;;;12.85;7.47;;;13.00;39.40;;;;;;5034933;28;19909;-86
2022/03/20 12:55:42;;;;;;;11.68;8.57;;;13.10;39.70;;;;;;5013275;28;20029;-86
2022/03/20 12:58:14;;;;;;;10.55;8.15;;;13.10;39.50;;;;;;5015077;28;20493;-88
2022/03/20 13:00:40;;;;;;;10.18;7.97;;;13.20;39.80;;;;;;5024934;28;20052;-87
2022/03/20 13:03:11;;;;;;;10.85;7.78;;;13.20;39.40;;;;;;5018007;28;20382;-84
2022/03/20 13:06:00;;;;;;;11.18;7.82;;;13.30;39.30;;;;;;5020268;28;20033;-85
2022/03/20 13:08:29;;;;;;;10.65;7.57;;;13.40;39.30;;;;;;5036522;28;20036;-83
2022/03/20 13:14:04;;;;;;;12.93;7.75;;;13.50;38.90;;;;;;5019795;28;20149;-81
2022/03/20 13:16:32;;;;;;;10.90;7.72;;;13.60;39.20;;;;;;5018062;28;20034;-81
2022/03/20 13:18:58;;;;;;;12.32;8.07;;;13.70;39.20;;;;;;5014177;28;20084;-82
2022/03/20 13:21:24;;;;;;;11.77;8.15;;;13.70;39.00;;;;;;5012415;28;20416;-82
2022/03/20 13:23:52;;;;;;;11.40;7.07;;;13.80;39.00;;;;;;5017014;28;20072;-81
2022/03/20 13:26:19;;;;;;;10.13;8.52;;;13.80;38.70;;;;;;5014698;28;20022;-82
2022/03/20 13:28:48;;;;;;;12.38;8.02;;;13.90;38.80;;;;;;5023113;28;20032;-83
2022/03/20 13:31:23;;;;;;;11.38;7.85;;;13.90;38.60;;;;;;5022941;28;20045;-83
2022/03/20 13:33:59;;;;;;;8.73;7.05;;;14.10;38.70;;;;;;5012923;28;20021;-82